MST,Max TemperatureF,Mean TemperatureF,Min TemperatureF,Max Dew PointF,MeanDew PointF,Min DewpointF,Max Humidity, Mean Humidity, Min Humidity, Max Sea Level PressureIn, Mean Sea Level PressureIn, Min Sea Level PressureIn, Max VisibilityMiles, Mean VisibilityMiles, Min VisibilityMiles, Max Wind SpeedMPH, Mean Wind SpeedMPH, Max Gust SpeedMPH,PrecipitationIn, CloudCover, Events, WindDirDegrees
2011-11-1,72,58,44,32,24,7,57,34,13,30.10,29.89,29.71,10,10,10,20,5,31,0.00,0,,289
2011-11-2,53,46,39,14,12,9,33,26,18,30.43,30.30,30.12,10,10,10,10,6,21,0.00,0,,324
2011-11-3,52,42,33,23,19,15,52,37,26,30.32,30.15,29.90,10,10,7,7,1,,0.00,0,,270
2011-11-4,71,54,37,43,26,16,80,42,12,29.88,29.63,29.43,10,10,7,20,5,31,0.11,2,Rain,193
2011-11-5,48,46,43,42,26,16,80,50,29,29.90,29.65,29.38,10,10,5,18,7,34,0.06,5,Rain,269
2011-11-6,48,42,37,32,25,21,70,49,37,29.97,29.92,29.85,10,10,10,9,2,,0.00,7,Rain,204
2011-11-7,41,37,33,36,34,26,100,86,57,30.04,29.92,29.86,3,3,3,9,3,,0.59,8,Rain,283
2011-11-8,48,40,33,29,26,23,75,57,42,30.36,30.22,30.06,10,10,10,12,5,17,0.00,1,,225
2011-11-9,50,42,33,29,26,24,75,59,37,30.53,30.47,30.37,10,10,10,5,2,,0.00,0,,220
2011-11-10,48,40,33,31,28,25,75,60,44,30.54,30.41,30.23,10,9,4,5,2,,0.00,0,,270
2011-11-11,48,42,37,35,32,30,76,65,52,30.21,30.06,29.93,10,9,6,5,1,,0.00,1,,97
2011-11-12,60,50,39,36,32,27,82,56,32,29.92,29.84,29.75,10,9,5,9,2,,0.00,2,,226
2011-11-13,55,48,42,43,37,30,76,63,50,29.94,29.84,29.76,10,10,6,8,4,,0.02,3,Rain,222
2011-11-14,57,48,39,38,36,33,83,63,44,29.92,29.88,29.81,10,10,9,6,2,,0.00,0,,152
2011-11-15,60,50,39,37,34,29,77,53,35,29.99,29.93,29.85,10,10,9,9,2,,0.00,1,,27
2011-11-16,55,48,39,29,24,19,58,40,24,30.25,30.16,29.98,10,10,8,6,2,,0.00,0,,356
2011-11-17,55,46,36,28,26,24,65,49,31,30.25,30.09,29.91,10,10,5,6,1,,0.00,0,,347
2011-11-18,57,47,37,33,29,24,76,51,34,29.90,29.73,29.58,10,10,8,10,2,,0.00,0,,152
2011-11-19,62,52,43,33,29,25,62,40,24,29.78,29.70,29.60,10,10,7,10,6,16,0.00,1,,146
2011-11-20,62,55,48,32,29,25,52,39,24,29.97,29.86,29.76,10,10,10,12,6,21,0.00,4,,193
2011-11-21,59,52,44,34,32,28,63,48,31,30.19,30.00,29.88,10,10,10,9,4,17,0.00,4,,258
2011-11-22,55,46,37,36,34,30,76,61,47,30.34,30.27,30.19,10,10,8,6,3,,0.00,0,,93
2011-11-23,55,46,37,33,31,30,79,59,40,30.30,30.19,30.06,10,9,5,5,1,,0.00,0,,100
2011-11-24,53,45,37,34,31,30,76,60,43,30.08,30.01,29.94,10,10,7,5,1,,0.00,1,,281
2011-11-25,61,49,37,32,25,13,70,43,19,30.18,30.03,29.95,10,10,10,10,3,16,0.00,0,,183
2011-11-26,54,46,37,18,12,8,36,25,17,30.56,30.43,30.19,10,9,3,6,3,,0.00,0,,16
2011-11-27,52,42,32,18,15,12,54,35,20,30.61,30.51,30.42,10,10,6,5,1,,0.00,0,,340
2011-11-28,52,43,34,23,19,16,54,40,25,30.42,30.34,30.25,10,9,5,4,1,,0.00,0,,235
2011-11-29,55,46,36,23,21,17,53,39,22,30.35,30.27,30.20,10,10,5,5,1,,0.00,0,,23
2011-11-30,53,44,34,24,21,18,59,41,29,30.16,29.88,29.65,10,9,4,6,2,,0.00,0,,231